Time;durP1;ratioP1;P1;durP2;ratioP2;P2;SDS_P1;SDS_P2;PMS_P1;PMS_P2;Temp;Humidity;BMP_temperature;BMP_pressure;BME280_temperature;BME280_humidity;BME280_pressure;Samples;Min_cycle;Max_cycle;Signal;HPM_P1;HPM_P2
2022/06/16 00:01:03;;;;;;;7.63;2.67;;;20.10;48.10;;;;;;5036308;28;20033;-71
2022/06/16 00:03:28;;;;;;;5.85;2.30;;;20.10;48.10;;;;;;5041018;28;20099;-71
2022/06/16 00:05:54;;;;;;;5.93;2.50;;;20.10;48.30;;;;;;5054432;28;20032;-71
2022/06/16 00:08:20;;;;;;;7.93;2.78;;;20.10;48.30;;;;;;5042080;28;20025;-71
2022/06/16 00:13:37;;;;;;;7.75;3.17;;;20.00;48.30;;;;;;5046543;28;20462;-71
2022/06/16 00:16:04;;;;;;;6.82;3.00;;;20.00;48.40;;;;;;5041881;28;20025;-71
2022/06/16 00:18:30;;;;;;;6.90;2.53;;;20.00;48.60;;;;;;5048740;28;20416;-71
2022/06/16 00:20:56;;;;;;;6.82;3.00;;;19.90;48.70;;;;;;5049867;28;20128;-71
2022/06/16 00:23:22;;;;;;;7.90;2.78;;;19.90;48.70;;;;;;5053137;28;20094;-71
2022/06/16 00:25:47;;;;;;;8.88;3.05;;;19.90;48.60;;;;;;5047340;28;20426;-72
2022/06/16 00:28:13;;;;;;;6.63;2.88;;;19.90;48.70;;;;;;5052546;28;20567;-72
2022/06/16 00:30:39;;;;;;;6.03;2.45;;;19.90;48.80;;;;;;5038524;28;20083;-72
2022/06/16 00:33:05;;;;;;;7.03;2.58;;;19.80;48.90;;;;;;5050262;28;20025;-72
2022/06/16 00:35:31;;;;;;;7.68;2.78;;;19.80;49.10;;;;;;5038279;28;20040;-72
2022/06/16 00:37:57;;;;;;;6.03;2.50;;;19.80;49.20;;;;;;5042603;28;20029;-72
2022/06/16 00:40:23;;;;;;;6.13;2.53;;;19.80;49.40;;;;;;5035691;28;20119;-71
2022/06/16 00:42:48;;;;;;;7.15;2.55;;;19.80;49.40;;;;;;5050814;28;20063;-72
2022/06/16 00:45:42;;;;;;;7.55;2.75;;;19.70;49.30;;;;;;5048746;28;20043;-72
2022/06/16 00:48:10;;;;;;;7.32;2.85;;;19.60;49.10;;;;;;5050473;28;20027;-71
2022/06/16 00:50:36;;;;;;;6.55;2.90;;;19.60;49.20;;;;;;5051900;28;20040;-71
2022/06/16 00:53:02;;;;;;;6.45;2.72;;;19.60;49.20;;;;;;5036039;28;20040;-72
2022/06/16 00:55:28;;;;;;;5.38;2.45;;;19.60;49.20;;;;;;5051284;28;20041;-71
2022/06/16 00:57:55;;;;;;;5.70;2.60;;;19.50;49.20;;;;;;5051892;28;20413;-72
2022/06/16 01:00:26;;;;;;;6.15;2.53;;;19.50;49.20;;;;;;5041387;28;20047;-73
2022/06/16 01:02:53;;;;;;;4.43;2.50;;;19.50;49.20;;;;;;5048327;28;20029;-73
2022/06/16 01:05:19;;;;;;;6.38;2.28;;;19.50;49.20;;;;;;5051275;28;20310;-72
2022/06/16 01:07:47;;;;;;;6.38;2.17;;;19.40;49.10;;;;;;5046123;28;20087;-73
2022/06/16 01:10:14;;;;;;;5.25;2.55;;;19.40;49.20;;;;;;5035757;28;20056;-72
2022/06/16 01:16:02;;;;;;;5.93;2.30;;;19.40;49.20;;;;;;5037397;28;20108;-73
2022/06/16 01:18:48;;;;;;;5.30;2.55;;;19.30;49.40;;;;;;5048517;28;20351;-72
2022/06/16 01:21:17;;;;;;;6.60;2.38;;;19.30;49.40;;;;;;5038817;28;20037;-71
2022/06/16 01:24:13;;;;;;;5.57;2.50;;;19.20;49.50;;;;;;5052209;28;20036;-71
2022/06/16 01:26:56;;;;;;;9.73;2.72;;;19.20;49.60;;;;;;5041449;28;20052;-71
2022/06/16 01:29:30;;;;;;;5.53;2.47;;;19.10;49.70;;;;;;5041031;28;20033;-71
2022/06/16 01:32:00;;;;;;;7.03;2.67;;;19.10;49.80;;;;;;5037441;28;20115;-71
2022/06/16 01:34:42;;;;;;;8.15;2.90;;;19.10;50.00;;;;;;5039497;28;20033;-71
2022/06/16 01:37:14;;;;;;;7.15;2.70;;;19.00;50.10;;;;;;5032274;28;20029;-71
2022/06/16 01:40:00;;;;;;;6.57;2.97;;;19.00;50.20;;;;;;5050775;28;20067;-71
2022/06/16 01:42:35;;;;;;;7.13;2.70;;;19.00;50.40;;;;;;5039489;28;20021;-71
2022/06/16 01:45:17;;;;;;;6.38;2.80;;;18.90;50.30;;;;;;5045501;28;20017;-71
2022/06/16 01:47:48;;;;;;;6.30;2.90;;;18.80;50.50;;;;;;5043336;28;20021;-71
2022/06/16 01:50:21;;;;;;;5.78;2.72;;;18.80;50.60;;;;;;5049717;28;20029;-71
2022/06/16 01:53:09;;;;;;;5.72;2.40;;;18.80;50.60;;;;;;5039038;28;20031;-71
2022/06/16 01:55:40;;;;;;;6.35;2.95;;;18.80;50.70;;;;;;5027074;28;20045;-71
2022/06/16 01:58:14;;;;;;;5.15;2.47;;;18.70;51.30;;;;;;5035784;28;20021;-71
2022/06/16 02:00:44;;;;;;;6.32;2.95;;;18.70;50.80;;;;;;5039231;28;20033;-71
2022/06/16 02:03:19;;;;;;;6.07;2.65;;;18.70;50.90;;;;;;5043831;28;20116;-72
2022/06/16 02:05:59;;;;;;;7.03;2.72;;;18.70;51.10;;;;;;5046006;28;20063;-71
2022/06/16 02:08:45;;;;;;;6.13;2.80;;;18.70;51.00;;;;;;5033261;28;20486;-71
2022/06/16 02:11:20;;;;;;;6.00;2.80;;;18.60;51.10;;;;;;5047580;28;20021;-71
2022/06/16 02:13:57;;;;;;;8.23;2.80;;;18.60;51.30;;;;;;5033016;28;20462;-71
2022/06/16 02:16:30;;;;;;;6.07;2.95;;;18.60;51.40;;;;;;5043240;28;20040;-71
2022/06/16 02:18:57;;;;;;;6.20;2.92;;;18.60;51.50;;;;;;5021183;28;20060;-71
2022/06/16 02:21:43;;;;;;;8.02;3.17;;;18.60;51.60;;;;;;5036139;28;20049;-71
2022/06/16 02:24:14;;;;;;;7.97;2.83;;;18.50;51.60;;;;;;5048994;28;20059;-71
2022/06/16 02:26:41;;;;;;;8.00;3.25;;;18.50;51.60;;;;;;5039109;28;20472;-71
2022/06/16 02:29:34;;;;;;;6.90;3.17;;;18.50;51.70;;;;;;5032770;28;20112;-71
2022/06/16 02:32:38;;;;;;;7.03;3.10;;;18.50;51.60;;;;;;5037746;28;20018;-71
2022/06/16 02:35:10;;;;;;;6.50;3.40;;;18.40;51.70;;;;;;5032707;28;20033;-71
2022/06/16 02:37:52;;;;;;;6.30;3.00;;;18.40;51.90;;;;;;5042552;28;20074;-71
2022/06/16 02:40:25;;;;;;;7.85;3.20;;;18.30;51.90;;;;;;5037308;28;20037;-71
2022/06/16 02:43:18;;;;;;;7.53;3.15;;;18.30;51.90;;;;;;5035771;28;20082;-72
2022/06/16 02:46:05;;;;;;;5.95;2.90;;;18.30;52.00;;;;;;5028806;28;20022;-72
2022/06/16 02:48:57;;;;;;;9.40;3.40;;;18.30;52.00;;;;;;5049627;28;20025;-72
2022/06/16 02:51:48;;;;;;;8.57;2.92;;;18.30;52.10;;;;;;5030114;28;20529;-72
2022/06/16 02:54:23;;;;;;;6.60;3.17;;;18.20;52.10;;;;;;5042897;28;20402;-72
2022/06/16 02:57:31;;;;;;;7.35;2.90;;;18.20;52.10;;;;;;5049030;28;20116;-72
2022/06/16 03:00:03;;;;;;;5.53;2.47;;;18.20;52.10;;;;;;5043856;28;20370;-72
2022/06/16 03:02:30;;;;;;;6.88;2.92;;;18.10;52.10;;;;;;5053430;28;20028;-71
2022/06/16 03:04:59;;;;;;;8.00;2.65;;;18.10;52.10;;;;;;5055024;28;20101;-71
2022/06/16 03:07:25;;;;;;;6.18;2.80;;;18.10;52.20;;;;;;5055128;28;20031;-71
2022/06/16 03:10:50;;;;;;;6.63;3.20;;;18.10;52.20;;;;;;5043656;28;20026;-71
2022/06/16 03:13:02;;;;;;;6.60;2.75;;;18.00;52.10;;;;;;5047839;28;20431;-71
2022/06/16 03:15:28;;;;;;;6.38;2.80;;;18.10;52.20;;;;;;5048783;28;20026;-71
2022/06/16 03:17:54;;;;;;;5.00;2.42;;;18.00;52.20;;;;;;5038561;28;20028;-71
2022/06/16 03:20:21;;;;;;;7.32;3.22;;;18.00;52.30;;;;;;5045127;28;20144;-71
2022/06/16 03:22:46;;;;;;;7.47;2.78;;;17.90;52.40;;;;;;5050085;28;20100;-72
2022/06/16 03:25:12;;;;;;;5.85;2.78;;;17.90;52.40;;;;;;5053891;28;20029;-72
2022/06/16 03:27:38;;;;;;;6.25;2.70;;;17.90;52.50;;;;;;5045169;28;20071;-72
2022/06/16 03:30:04;;;;;;;7.38;3.08;;;17.90;52.50;;;;;;5026413;28;20347;-73
2022/06/16 03:32:31;;;;;;;6.55;3.00;;;17.90;52.60;;;;;;5042081;28;20025;-74
2022/06/16 03:34:57;;;;;;;6.25;2.65;;;17.90;52.60;;;;;;5043470;28;20545;-73
2022/06/16 03:37:24;;;;;;;7.78;2.80;;;17.90;52.70;;;;;;5042236;28;20083;-71
2022/06/16 03:39:54;;;;;;;;;;;17.80;52.70;;;;;;5037873;28;20017;-71
2022/06/16 03:42:20;;;;;;;5.78;2.63;;;17.80;52.70;;;;;;5021266;28;19913;-72
2022/06/16 03:44:45;;;;;;;6.40;3.05;;;17.80;52.90;;;;;;5037400;28;20056;-73
2022/06/16 03:47:13;;;;;;;7.40;2.90;;;17.80;53.00;;;;;;5034721;28;20033;-73
2022/06/16 03:49:41;;;;;;;6.80;3.13;;;17.70;53.00;;;;;;5022033;28;20052;-72
2022/06/16 03:52:07;;;;;;;7.80;3.50;;;17.70;53.10;;;;;;5030159;28;20065;-71
2022/06/16 03:54:35;;;;;;;6.07;3.33;;;17.70;53.10;;;;;;5041896;28;20472;-71
2022/06/16 03:57:05;;;;;;;7.28;3.00;;;17.70;53.20;;;;;;5047687;28;20033;-71
2022/06/16 03:59:31;;;;;;;7.75;3.42;;;17.70;53.30;;;;;;5044610;28;20029;-71
2022/06/16 04:02:03;;;;;;;6.75;3.22;;;17.70;53.60;;;;;;5048374;28;20045;-71
2022/06/16 04:04:33;;;;;;;7.80;2.95;;;17.70;53.50;;;;;;5042285;28;20029;-72
2022/06/16 04:07:02;;;;;;;6.35;2.88;;;17.70;53.60;;;;;;5032726;28;20116;-72
2022/06/16 04:09:28;;;;;;;5.97;2.95;;;17.70;53.80;;;;;;5042809;28;20442;-72
2022/06/16 04:11:58;;;;;;;6.90;3.05;;;17.70;54.00;;;;;;5054846;28;20048;-72
2022/06/16 04:14:24;;;;;;;6.47;3.30;;;17.70;54.70;;;;;;5038196;28;20049;-72
2022/06/16 04:17:02;;;;;;;6.85;3.35;;;17.70;54.30;;;;;;5054956;28;20029;-72
2022/06/16 04:22:26;;;;;;;5.85;2.80;;;17.60;54.40;;;;;;5048130;28;20032;-72
2022/06/16 04:25:14;;;;;;;7.65;3.28;;;17.60;55.10;;;;;;5038389;28;20401;-72
2022/06/16 04:27:42;;;;;;;6.50;3.03;;;17.60;54.50;;;;;;5033899;28;20060;-72
2022/06/16 04:30:09;;;;;;;9.52;3.40;;;17.60;54.70;;;;;;5036755;28;20064;-72
2022/06/16 04:32:35;;;;;;;7.78;3.75;;;17.60;54.80;;;;;;5045644;28;20119;-71
2022/06/16 04:35:02;;;;;;;8.00;3.58;;;17.60;54.80;;;;;;5046800;28;20580;-70
2022/06/16 04:37:35;;;;;;;6.45;3.28;;;17.70;54.90;;;;;;5059825;28;20040;-70
2022/06/16 04:40:01;;;;;;;6.95;3.33;;;17.70;54.90;;;;;;5022713;28;20025;-71
2022/06/16 04:42:27;;;;;;;9.13;3.88;;;17.70;55.00;;;;;;5047012;28;20185;-69
2022/06/16 04:44:52;;;;;;;7.47;3.25;;;17.70;55.10;;;;;;5042021;28;20179;-71
2022/06/16 04:47:18;;;;;;;5.68;3.15;;;17.70;55.10;;;;;;5022723;28;20036;-71
2022/06/16 04:49:48;;;;;;;6.35;3.10;;;17.70;55.20;;;;;;5030975;28;20308;-71
2022/06/16 04:52:18;;;;;;;7.45;3.63;;;17.70;55.30;;;;;;5037079;28;20104;-71
2022/06/16 04:54:49;;;;;;;8.23;3.55;;;17.70;55.50;;;;;;5052035;28;20059;-71
2022/06/16 04:57:34;;;;;;;7.30;3.40;;;17.70;55.50;;;;;;5052003;28;20430;-71
2022/06/16 05:00:21;;;;;;;7.55;3.72;;;17.80;55.60;;;;;;5032311;28;20033;-71
2022/06/16 05:03:04;;;;;;;8.20;3.85;;;17.90;55.40;;;;;;5032689;28;20163;-71
2022/06/16 05:05:49;;;;;;;6.32;3.25;;;18.00;55.20;;;;;;5054794;28;20362;-71
2022/06/16 05:08:24;;;;;;;8.43;3.35;;;18.10;55.00;;;;;;5048741;28;20504;-73
2022/06/16 05:11:04;;;;;;;6.20;3.00;;;18.10;54.90;;;;;;5022896;28;20451;-71
2022/06/16 05:13:35;;;;;;;5.97;3.10;;;18.50;54.50;;;;;;5049236;28;20071;-70
2022/06/16 05:16:07;;;;;;;;;;;19.00;53.90;;;;;;5045486;28;20029;-73
2022/06/16 05:18:51;;;;;;;8.48;2.85;;;19.20;53.60;;;;;;5043912;28;19924;-72
2022/06/16 05:21:37;;;;;;;6.10;2.42;;;19.30;53.30;;;;;;5044709;28;20037;-73
2022/06/16 05:24:23;;;;;;;6.57;2.88;;;19.30;53.40;;;;;;5041169;28;20044;-71
2022/06/16 05:27:07;;;;;;;6.32;2.70;;;19.40;53.40;;;;;;5043057;28;20043;-72
2022/06/16 05:29:39;;;;;;;6.05;2.75;;;19.40;53.20;;;;;;5038674;28;20021;-72
2022/06/16 05:32:15;;;;;;;6.55;2.40;;;19.50;53.20;;;;;;5039252;28;20342;-73
2022/06/16 05:35:03;;;;;;;6.13;2.50;;;19.50;53.10;;;;;;5020444;28;20034;-73
2022/06/16 05:37:47;;;;;;;5.53;2.65;;;19.60;53.10;;;;;;5034088;28;20052;-73
2022/06/16 05:40:37;;;;;;;5.10;2.10;;;19.70;53.20;;;;;;5022094;28;20033;-73
2022/06/16 05:43:03;;;;;;;7.78;2.13;;;19.70;53.30;;;;;;5040961;28;20029;-73
2022/06/16 05:45:47;;;;;;;5.72;2.30;;;19.80;53.30;;;;;;5038778;28;20045;-73
2022/06/16 05:48:25;;;;;;;7.65;2.50;;;19.90;53.00;;;;;;5030802;28;20022;-73
2022/06/16 05:51:03;;;;;;;7.10;2.40;;;20.00;53.00;;;;;;5032009;28;20056;-73
2022/06/16 05:53:29;;;;;;;5.10;1.98;;;20.00;52.80;;;;;;5019390;28;20422;-72
2022/06/16 05:55:55;;;;;;;5.68;2.10;;;20.20;52.50;;;;;;5037032;28;20061;-71
2022/06/16 05:58:20;;;;;;;4.50;2.00;;;20.20;52.10;;;;;;5035124;28;20367;-71
2022/06/16 06:00:50;;;;;;;5.80;1.98;;;20.30;51.90;;;;;;5030096;28;20033;-71
2022/06/16 06:03:20;;;;;;;5.80;2.00;;;20.40;51.70;;;;;;5035798;28;20026;-72
2022/06/16 06:05:46;;;;;;;4.63;1.70;;;20.50;51.50;;;;;;5019313;28;20064;-72
2022/06/16 06:16:37;;;;;;;5.13;1.60;;;20.90;50.20;;;;;;5031224;28;20044;-72
2022/06/16 06:19:24;;;;;;;4.07;1.42;;;21.00;49.80;;;;;;5044493;28;20025;-72
2022/06/16 06:22:11;;;;;;;5.97;1.73;;;21.10;49.30;;;;;;5032716;28;20025;-72
2022/06/16 06:24:38;;;;;;;6.43;1.50;;;21.30;48.90;;;;;;5044519;28;20034;-72
2022/06/16 06:27:14;;;;;;;3.08;1.20;;;21.30;48.60;;;;;;5034616;28;20022;-70
2022/06/16 06:29:42;;;;;;;4.28;1.50;;;21.50;48.40;;;;;;5034957;28;20025;-70
2022/06/16 06:32:08;;;;;;;4.88;1.50;;;21.60;48.20;;;;;;5050932;28;20025;-70
2022/06/16 06:34:34;;;;;;;3.85;1.40;;;21.70;48.20;;;;;;5018781;28;20087;-70
2022/06/16 06:37:00;;;;;;;4.35;1.67;;;21.80;48.20;;;;;;5038686;28;20443;-70
2022/06/16 06:39:25;;;;;;;6.20;1.67;;;21.90;47.90;;;;;;5039875;28;20064;-70
2022/06/16 06:41:51;;;;;;;4.05;1.70;;;22.10;47.80;;;;;;5031396;28;20442;-70
2022/06/16 06:44:17;;;;;;;3.63;1.42;;;22.20;47.40;;;;;;5022082;28;20022;-70
2022/06/16 06:46:42;;;;;;;2.53;1.38;;;22.30;47.00;;;;;;5036198;28;20082;-70
2022/06/16 06:49:08;;;;;;;2.85;1.33;;;22.50;46.80;;;;;;5036206;28;20132;-70
2022/06/16 06:51:34;;;;;;;2.88;1.17;;;22.60;46.40;;;;;;5023717;28;20374;-70
2022/06/16 06:54:00;;;;;;;3.38;1.17;;;22.70;45.80;;;;;;5040637;28;20108;-70
2022/06/16 06:56:31;;;;;;;3.08;1.27;;;22.80;46.20;;;;;;5038796;28;20036;-70
2022/06/16 06:58:59;;;;;;;3.38;1.30;;;22.90;45.20;;;;;;5045557;28;20093;-70
2022/06/16 07:01:25;;;;;;;3.08;1.02;;;23.00;44.60;;;;;;5040844;28;20398;-71
2022/06/16 07:03:51;;;;;;;5.15;1.52;;;23.00;44.20;;;;;;5037363;28;20091;-72
2022/06/16 07:06:18;;;;;;;3.72;1.10;;;23.10;44.00;;;;;;5036632;28;20029;-72
2022/06/16 07:08:44;;;;;;;4.00;1.35;;;23.20;43.60;;;;;;5046818;28;20028;-72
2022/06/16 07:11:10;;;;;;;4.32;1.40;;;23.30;43.20;;;;;;5043381;28;20029;-72
2022/06/16 07:13:36;;;;;;;3.38;1.08;;;23.40;43.00;;;;;;5036278;28;20053;-71
2022/06/16 07:16:01;;;;;;;3.65;1.05;;;23.50;42.90;;;;;;5044745;28;20025;-72
2022/06/16 07:18:27;;;;;;;3.28;1.27;;;23.60;42.70;;;;;;5047158;28;20040;-71
2022/06/16 07:20:53;;;;;;;2.78;1.20;;;23.70;42.50;;;;;;5052970;28;20029;-70
2022/06/16 07:23:19;;;;;;;4.78;1.40;;;23.80;42.10;;;;;;5049951;28;20056;-70
2022/06/16 07:25:47;;;;;;;3.03;1.33;;;23.90;41.90;;;;;;5036549;28;20470;-70
2022/06/16 07:28:13;;;;;;;3.25;1.40;;;24.00;41.70;;;;;;5054600;28;20430;-71
2022/06/16 07:30:39;;;;;;;3.30;1.40;;;24.10;41.60;;;;;;5033819;28;20026;-71
2022/06/16 07:33:04;;;;;;;4.05;1.52;;;24.30;41.60;;;;;;5049318;28;20040;-71
2022/06/16 07:35:30;;;;;;;3.67;1.40;;;24.40;41.20;;;;;;5035799;28;20065;-70
2022/06/16 07:37:56;;;;;;;5.07;1.48;;;24.50;40.90;;;;;;5052841;28;20020;-71
2022/06/16 07:40:22;;;;;;;3.38;1.55;;;24.60;40.90;;;;;;5054396;28;20488;-71
2022/06/16 07:42:49;;;;;;;4.10;1.40;;;24.80;40.90;;;;;;5056262;28;20051;-71
2022/06/16 07:45:15;;;;;;;3.45;1.40;;;24.90;40.40;;;;;;5053460;28;20419;-72
2022/06/16 07:47:41;;;;;;;3.03;1.17;;;25.00;40.10;;;;;;5047553;28;20111;-71
2022/06/16 07:50:10;;;;;;;5.95;1.58;;;25.00;39.80;;;;;;5048414;28;20025;-71
2022/06/16 07:52:36;;;;;;;4.43;1.10;;;25.10;39.70;;;;;;5046292;28;20038;-72
2022/06/16 07:55:03;;;;;;;3.38;1.35;;;25.30;39.50;;;;;;5048264;28;20345;-71
2022/06/16 07:57:31;;;;;;;3.65;1.42;;;25.40;39.20;;;;;;5042354;28;20033;-72
2022/06/16 07:59:58;;;;;;;3.17;1.25;;;25.50;38.80;;;;;;5042288;28;20029;-71
2022/06/16 08:02:24;;;;;;;3.67;1.20;;;25.60;38.70;;;;;;5026394;28;20026;-75
2022/06/16 08:04:51;;;;;;;3.20;1.30;;;25.70;38.70;;;;;;5042093;28;20506;-79
2022/06/16 08:07:17;;;;;;;3.55;1.20;;;25.70;38.40;;;;;;5048776;28;20166;-74
2022/06/16 08:09:43;;;;;;;3.80;1.40;;;25.80;38.20;;;;;;5052108;28;20115;-78
2022/06/16 08:12:10;;;;;;;4.13;1.30;;;25.90;38.40;;;;;;5054296;28;20442;-78
2022/06/16 08:14:39;;;;;;;3.30;1.30;;;26.00;38.40;;;;;;5053569;28;20469;-74
2022/06/16 08:17:08;;;;;;;4.35;1.30;;;26.10;38.40;;;;;;5050632;28;20453;-74
2022/06/16 08:19:35;;;;;;;2.08;1.10;;;26.20;38.50;;;;;;5038312;28;20026;-74
2022/06/16 08:22:01;;;;;;;3.25;1.40;;;26.30;38.50;;;;;;5056125;28;20078;-74
2022/06/16 08:24:27;;;;;;;2.17;1.20;;;26.30;38.00;;;;;;5055497;28;20405;-73
2022/06/16 08:26:52;;;;;;;3.97;1.23;;;26.40;37.80;;;;;;5054656;28;20060;-74
2022/06/16 08:29:18;;;;;;;2.10;1.10;;;26.40;37.80;;;;;;5054310;28;20029;-74
2022/06/16 08:31:45;;;;;;;3.25;1.40;;;26.50;37.90;;;;;;5050460;28;20347;-74
2022/06/16 08:34:11;;;;;;;4.88;1.50;;;26.60;37.90;;;;;;5054506;28;20128;-74
2022/06/16 08:36:37;;;;;;;3.08;1.27;;;26.60;37.60;;;;;;5054090;28;20062;-74
2022/06/16 08:39:08;;;;;;;5.10;1.65;;;26.80;37.60;;;;;;5053826;28;20040;-74
2022/06/16 08:42:02;;;;;;;5.05;1.77;;;26.90;37.30;;;;;;5054198;28;20036;-74
2022/06/16 08:44:57;;;;;;;7.18;1.70;;;27.00;37.20;;;;;;5042824;28;20033;-73
2022/06/16 08:47:29;;;;;;;3.75;1.30;;;27.10;37.00;;;;;;5044377;28;20033;-73
2022/06/16 08:50:22;;;;;;;4.05;1.45;;;27.20;36.90;;;;;;5049675;28;20039;-74
2022/06/16 08:53:15;;;;;;;4.90;1.42;;;27.30;37.00;;;;;;5047593;28;20033;-71
2022/06/16 08:55:55;;;;;;;4.47;1.60;;;27.40;36.90;;;;;;5041559;28;20086;-71
2022/06/16 08:58:24;;;;;;;4.82;1.65;;;27.40;36.80;;;;;;5051242;28;20063;-71
2022/06/16 09:00:58;;;;;;;3.45;1.40;;;27.50;36.60;;;;;;5030744;28;20033;-71
2022/06/16 09:03:35;;;;;;;4.47;1.77;;;27.50;36.40;;;;;;5051835;28;20037;-71
2022/06/16 09:06:32;;;;;;;4.15;1.40;;;27.70;36.30;;;;;;5052204;28;20044;-71
2022/06/16 09:10:14;;;;;;;3.72;1.40;;;27.70;36.50;;;;;;5051668;28;20445;-71
2022/06/16 09:12:20;;;;;;;3.75;1.40;;;27.90;36.20;;;;;;5039414;28;20029;-71
2022/06/16 09:15:21;;;;;;;3.78;1.30;;;28.00;36.20;;;;;;5030251;28;20366;-71
2022/06/16 09:18:12;;;;;;;4.15;1.42;;;28.00;35.80;;;;;;5053605;28;20037;-71
2022/06/16 09:20:58;;;;;;;4.32;1.50;;;28.00;35.80;;;;;;5043708;28;20033;-71
2022/06/16 09:23:33;;;;;;;3.60;1.70;;;28.00;35.60;;;;;;5053843;28;20461;-71
2022/06/16 09:26:07;;;;;;;3.83;1.50;;;28.10;35.80;;;;;;5056914;28;20025;-71
2022/06/16 09:28:51;;;;;;;4.35;1.50;;;28.10;35.40;;;;;;5060566;28;20347;-71
2022/06/16 09:31:24;;;;;;;4.40;1.58;;;28.10;35.20;;;;;;5041969;28;20021;-72
2022/06/16 09:33:57;;;;;;;3.60;1.83;;;28.10;35.40;;;;;;5047023;28;20112;-72
2022/06/16 09:36:34;;;;;;;4.45;1.67;;;28.20;35.50;;;;;;5053537;28;20445;-71
2022/06/16 09:39:07;;;;;;;3.20;1.42;;;28.30;35.60;;;;;;5042377;28;20028;-71
2022/06/16 09:45:09;;;;;;;3.50;1.35;;;28.50;35.60;;;;;;5054866;28;20530;-71
2022/06/16 09:47:44;;;;;;;4.20;1.58;;;28.60;35.90;;;;;;5019660;28;20048;-71
2022/06/16 09:50:28;;;;;;;4.22;1.83;;;28.70;35.60;;;;;;5039115;28;20025;-71
2022/06/16 09:53:27;;;;;;;5.47;1.98;;;28.70;35.20;;;;;;5038580;28;20104;-71
2022/06/16 09:56:31;;;;;;;5.78;1.48;;;28.70;35.20;;;;;;5015946;28;20053;-71
2022/06/16 09:59:06;;;;;;;5.30;2.10;;;28.80;35.30;;;;;;5050302;28;20048;-74
2022/06/16 10:01:39;;;;;;;3.78;1.63;;;28.80;35.30;;;;;;5049299;28;20041;-73
2022/06/16 10:04:06;;;;;;;4.07;1.65;;;28.80;35.30;;;;;;5051472;28;20335;-73
2022/06/16 10:06:42;;;;;;;4.97;1.40;;;28.90;35.50;;;;;;5046643;28;20036;-72
2022/06/16 10:09:21;;;;;;;7.50;2.47;;;29.00;35.30;;;;;;5052711;28;20339;-72
2022/06/16 10:11:59;;;;;;;4.32;1.50;;;29.00;35.30;;;;;;5054819;28;20036;-72
2022/06/16 10:14:38;;;;;;;3.00;1.40;;;29.00;35.30;;;;;;5052126;28;20045;-72
2022/06/16 10:17:09;;;;;;;3.40;1.65;;;29.10;35.40;;;;;;5038034;28;20037;-72
2022/06/16 10:19:39;;;;;;;6.57;1.95;;;29.10;35.40;;;;;;5057863;28;20025;-72
2022/06/16 10:22:07;;;;;;;4.68;1.67;;;29.20;35.70;;;;;;5024035;28;20060;-73
2022/06/16 10:24:38;;;;;;;2.67;1.27;;;29.20;35.70;;;;;;5057982;28;20116;-73
2022/06/16 10:27:04;;;;;;;4.13;1.60;;;29.30;35.40;;;;;;5056372;28;20029;-73
2022/06/16 10:29:33;;;;;;;4.80;1.88;;;29.40;35.30;;;;;;5057715;28;20369;-73
2022/06/16 10:32:01;;;;;;;5.80;2.03;;;29.40;35.40;;;;;;5043966;28;20052;-73
2022/06/16 10:34:29;;;;;;;4.95;1.80;;;29.50;35.50;;;;;;5050852;28;20408;-72
2022/06/16 10:37:15;;;;;;;3.45;1.80;;;29.50;35.20;;;;;;5029582;28;20033;-73
2022/06/16 10:39:58;;;;;;;4.75;1.80;;;29.40;34.80;;;;;;5043909;28;20033;-73
2022/06/16 10:42:26;;;;;;;5.38;1.70;;;29.40;35.00;;;;;;5055205;28;20025;-73
2022/06/16 10:45:01;;;;;;;4.10;1.70;;;29.30;35.20;;;;;;5055045;28;20439;-71
2022/06/16 10:47:41;;;;;;;4.10;1.60;;;29.30;35.10;;;;;;5045834;28;20030;-73
2022/06/16 10:50:16;;;;;;;3.83;1.60;;;29.30;35.10;;;;;;5041729;28;20104;-74
2022/06/16 10:52:50;;;;;;;4.97;1.90;;;29.30;35.10;;;;;;5044981;28;20420;-73
2022/06/16 10:55:23;;;;;;;4.72;1.80;;;29.30;35.30;;;;;;5053532;28;20116;-73
2022/06/16 10:58:06;;;;;;;5.68;1.40;;;29.40;35.30;;;;;;5036464;28;20126;-74
2022/06/16 11:00:34;;;;;;;4.18;1.55;;;29.40;35.20;;;;;;5038658;28;20453;-73
2022/06/16 11:03:01;;;;;;;4.32;1.58;;;29.40;35.10;;;;;;5039509;28;20072;-73
2022/06/16 11:05:30;;;;;;;3.10;1.50;;;29.50;35.30;;;;;;5054186;28;20032;-73
2022/06/16 11:08:06;;;;;;;4.07;1.60;;;29.50;35.30;;;;;;5054087;28;20028;-73
2022/06/16 11:10:35;;;;;;;3.53;1.63;;;29.60;35.00;;;;;;5044608;28;20048;-73
2022/06/16 11:13:02;;;;;;;5.57;2.08;;;29.60;35.00;;;;;;5047045;28;20051;-74
2022/06/16 11:15:34;;;;;;;3.88;1.70;;;29.50;35.00;;;;;;5051977;28;20033;-74
2022/06/16 11:18:06;;;;;;;4.53;1.70;;;29.60;34.80;;;;;;5044415;28;20402;-74
2022/06/16 11:20:48;;;;;;;4.32;1.60;;;29.50;34.80;;;;;;5042358;28;20041;-74
2022/06/16 11:23:25;;;;;;;3.40;1.40;;;29.50;34.80;;;;;;5052772;28;20339;-75
2022/06/16 11:26:05;;;;;;;4.22;1.77;;;29.50;35.00;;;;;;5053929;28;20050;-75
2022/06/16 11:28:30;;;;;;;4.00;1.52;;;29.50;35.00;;;;;;5039563;28;20036;-76
2022/06/16 11:31:01;;;;;;;4.40;1.70;;;29.50;35.20;;;;;;5031692;28;20037;-76
2022/06/16 11:36:18;;;;;;;4.28;1.60;;;29.40;35.10;;;;;;5038715;28;20037;-72
2022/06/16 11:38:56;;;;;;;5.13;1.80;;;29.40;35.00;;;;;;5043333;28;20067;-73
2022/06/16 11:41:23;;;;;;;3.88;1.70;;;29.40;34.90;;;;;;5040371;28;20040;-72
2022/06/16 11:44:00;;;;;;;4.82;1.83;;;29.40;35.00;;;;;;5054637;28;20030;-72
2022/06/16 11:46:46;;;;;;;4.38;1.60;;;29.20;35.00;;;;;;5025774;28;20025;-72
2022/06/16 11:49:30;;;;;;;5.00;1.75;;;29.20;35.00;;;;;;5041555;28;20087;-72
2022/06/16 11:52:07;;;;;;;4.72;1.90;;;29.20;35.10;;;;;;5040027;28;20033;-70
2022/06/16 11:54:48;;;;;;;3.47;1.52;;;29.20;35.10;;;;;;5041903;28;20024;-71
2022/06/16 11:57:33;;;;;;;5.10;2.15;;;29.10;35.30;;;;;;5042236;28;20032;-70
2022/06/16 12:00:13;;;;;;;4.90;1.83;;;29.00;35.60;;;;;;5039267;28;20022;-71
2022/06/16 12:03:01;;;;;;;5.10;2.28;;;29.00;35.30;;;;;;5040058;28;20045;-71
2022/06/16 12:05:49;;;;;;;5.15;1.85;;;28.90;35.40;;;;;;5021936;28;20434;-70
2022/06/16 12:08:21;;;;;;;3.55;1.70;;;28.80;35.40;;;;;;5039258;28;20425;-71
2022/06/16 12:10:53;;;;;;;3.33;1.55;;;28.70;35.30;;;;;;5041408;28;20106;-70
2022/06/16 12:13:39;;;;;;;3.55;1.80;;;28.70;35.30;;;;;;5039266;28;20049;-70
2022/06/16 12:16:27;;;;;;;4.40;1.88;;;28.60;35.20;;;;;;5041130;28;20044;-71
2022/06/16 12:19:13;;;;;;;5.38;1.80;;;28.50;35.70;;;;;;5038753;28;20108;-71
2022/06/16 12:21:50;;;;;;;4.68;1.92;;;28.40;36.10;;;;;;5041789;28;20480;-70
2022/06/16 12:24:30;;;;;;;4.57;2.10;;;28.40;36.20;;;;;;5037649;28;20025;-71
2022/06/16 12:27:11;;;;;;;3.83;1.60;;;28.40;36.50;;;;;;5036286;28;20083;-71
2022/06/16 12:29:44;;;;;;;4.05;1.70;;;28.30;36.20;;;;;;5039073;28;20029;-71
2022/06/16 12:32:29;;;;;;;5.82;2.08;;;28.30;36.20;;;;;;5037663;28;20028;-71
2022/06/16 12:35:07;;;;;;;4.78;1.90;;;28.20;36.40;;;;;;5037479;28;20029;-72
2022/06/16 12:37:39;;;;;;;4.78;1.67;;;28.10;36.20;;;;;;5039058;28;20112;-72
2022/06/16 12:40:18;;;;;;;4.07;1.70;;;28.00;36.30;;;;;;5040255;28;20159;-72
2022/06/16 12:42:51;;;;;;;4.68;1.80;;;28.00;36.60;;;;;;5036822;28;20032;-72
2022/06/16 12:45:37;;;;;;;4.07;1.65;;;27.90;36.80;;;;;;5040996;28;20490;-71
2022/06/16 12:48:09;;;;;;;5.28;1.88;;;27.90;36.90;;;;;;5031759;28;20032;-72
2022/06/16 12:50:44;;;;;;;5.80;1.83;;;27.90;36.90;;;;;;5037673;28;20013;-71
2022/06/16 12:53:39;;;;;;;3.45;1.50;;;27.80;36.80;;;;;;5048498;28;20036;-71
2022/06/16 12:56:10;;;;;;;3.55;1.83;;;27.80;37.00;;;;;;5049334;28;20361;-71
2022/06/16 12:58:55;;;;;;;5.22;2.15;;;27.80;36.90;;;;;;5036091;28;20129;-72
2022/06/16 13:01:20;;;;;;;3.92;1.67;;;27.80;36.80;;;;;;5035163;28;20037;-72
2022/06/16 13:03:49;;;;;;;4.78;2.22;;;27.70;36.90;;;;;;5031909;28;20051;-72
2022/06/16 13:06:18;;;;;;;5.10;1.95;;;27.50;36.80;;;;;;5034939;28;20025;-72
2022/06/16 13:08:50;;;;;;;4.82;1.67;;;27.40;37.20;;;;;;5037161;28;20025;-72
2022/06/16 13:11:20;;;;;;;8.27;2.10;;;27.40;37.40;;;;;;5034582;28;20014;-73
2022/06/16 13:13:53;;;;;;;4.70;1.90;;;27.30;37.30;;;;;;5047168;28;20049;-72
2022/06/16 13:16:23;;;;;;;5.57;1.90;;;27.30;37.50;;;;;;5034631;28;20272;-72
2022/06/16 13:19:00;;;;;;;3.83;1.90;;;27.20;37.90;;;;;;5035510;28;20110;-72
2022/06/16 13:21:34;;;;;;;4.57;2.25;;;27.20;37.00;;;;;;5035512;28;20107;-73
2022/06/16 13:24:33;;;;;;;3.40;1.77;;;27.20;37.00;;;;;;5035960;28;20504;-72
2022/06/16 13:27:23;;;;;;;5.38;2.13;;;27.20;37.40;;;;;;5046560;28;20533;-72
2022/06/16 13:29:51;;;;;;;6.45;1.95;;;27.10;38.70;;;;;;5043626;28;20033;-72
2022/06/16 13:32:48;;;;;;;3.90;1.92;;;27.10;38.10;;;;;;5033197;28;20123;-72
2022/06/16 13:35:14;;;;;;;5.13;1.77;;;27.10;38.00;;;;;;5029977;28;20045;-71
2022/06/16 13:38:10;;;;;;;4.70;1.77;;;27.10;38.00;;;;;;5035649;28;20044;-72
2022/06/16 13:40:44;;;;;;;4.18;1.80;;;27.10;38.00;;;;;;5036671;28;20029;-72
2022/06/16 13:43:18;;;;;;;6.00;2.20;;;27.00;38.10;;;;;;5044496;28;20025;-73
2022/06/16 13:46:03;;;;;;;4.07;1.88;;;27.00;38.00;;;;;;5044071;28;20041;-71